createdAt,value
2022-08-29T00:01:18.186Z,3.72
2022-08-29T00:06:20.643Z,3.15
2022-08-29T00:11:23.473Z,3.92
2022-08-29T00:16:26.319Z,3.40
2022-08-29T00:21:28.896Z,3.38
2022-08-29T00:26:31.508Z,3.90
2022-08-29T00:31:34.343Z,3.40
2022-08-29T00:36:37.599Z,4.78
2022-08-29T00:41:40.157Z,3.58
2022-08-29T00:46:43.056Z,3.78
2022-08-29T00:51:47.749Z,3.47
2022-08-29T00:56:51.043Z,3.33
2022-08-29T01:01:53.893Z,2.83
2022-08-29T01:06:57.499Z,3.75
2022-08-29T01:12:18.447Z,3.35
2022-08-29T01:17:33.915Z,3.55
2022-08-29T01:23:11.887Z,4.13
2022-08-29T01:28:17.075Z,3.58
2022-08-29T01:33:19.466Z,3.22
2022-08-29T01:38:28.044Z,3.75
2022-08-29T01:43:31.422Z,3.40
2022-08-29T01:48:35.879Z,4.10
2022-08-29T01:53:38.611Z,4.18
2022-08-29T01:58:42.203Z,3.63
2022-08-29T02:03:45.396Z,3.80
2022-08-29T02:08:48.005Z,3.75
2022-08-29T02:13:55.343Z,3.33
2022-08-29T02:18:58.602Z,3.75
2022-08-29T02:24:24.069Z,3.90
2022-08-29T02:29:30.814Z,4.03
2022-08-29T02:34:44.823Z,3.78
2022-08-29T02:39:50.931Z,4.07
2022-08-29T02:44:53.363Z,4.07
2022-08-29T02:49:55.821Z,3.78
2022-08-29T02:54:58.303Z,3.50
2022-08-29T03:00:00.821Z,3.85
2022-08-29T03:05:03.819Z,3.58
2022-08-29T03:10:07.586Z,4.32
2022-08-29T03:15:10.900Z,3.60
2022-08-29T03:20:16.076Z,3.85
2022-08-29T03:25:18.866Z,3.95
2022-08-29T03:30:21.400Z,3.90
2022-08-29T03:35:26.425Z,3.95
2022-08-29T03:40:29.008Z,3.83
2022-08-29T03:45:31.549Z,3.15
2022-08-29T03:50:34.279Z,4.15
2022-08-29T03:55:36.716Z,3.78
2022-08-29T04:00:39.259Z,3.63
2022-08-29T04:05:41.722Z,3.33
2022-08-29T04:10:44.213Z,3.75
2022-08-29T04:15:46.982Z,3.33
2022-08-29T04:20:49.522Z,3.72
2022-08-29T04:25:59.106Z,3.38
2022-08-29T04:31:20.405Z,4.50
2022-08-29T04:36:22.911Z,4.03
2022-08-29T04:41:25.630Z,3.65
2022-08-29T04:46:29.584Z,3.45
2022-08-29T04:51:34.524Z,3.78
2022-08-29T04:56:38.277Z,3.33
2022-08-29T05:01:44.472Z,3.50
2022-08-29T05:06:46.973Z,3.53
2022-08-29T05:11:49.742Z,3.58
2022-08-29T05:16:52.260Z,4.65
2022-08-29T05:21:58.006Z,4.95
2022-08-29T05:27:00.319Z,4.40
2022-08-29T05:32:03.087Z,3.78
2022-08-29T05:37:09.371Z,4.65
2022-08-29T05:42:12.755Z,3.95
2022-08-29T05:47:19.164Z,4.40
2022-08-29T05:52:21.888Z,4.13
2022-08-29T05:57:24.378Z,4.60
2022-08-29T06:02:26.892Z,5.60
2022-08-29T06:07:30.891Z,4.20
2022-08-29T06:12:34.077Z,4.93
2022-08-29T06:17:37.689Z,3.33
2022-08-29T06:22:40.695Z,4.38
2022-08-29T06:27:43.291Z,4.05
2022-08-29T06:32:45.781Z,4.32
2022-08-29T06:37:48.414Z,4.15
2022-08-29T06:42:50.979Z,4.57
2022-08-29T06:47:53.483Z,3.83
2022-08-29T06:52:56.039Z,3.53
2022-08-29T06:57:59.827Z,3.92
2022-08-29T07:03:02.306Z,3.75
2022-08-29T07:08:05.013Z,4.38
2022-08-29T07:13:07.404Z,3.35
2022-08-29T07:18:10.251Z,3.33
2022-08-29T07:23:12.713Z,3.95
2022-08-29T07:28:15.246Z,3.72
2022-08-29T07:33:17.859Z,3.67
2022-08-29T07:38:21.365Z,3.78
2022-08-29T07:43:27.771Z,3.72
2022-08-29T07:48:30.531Z,3.80
2022-08-29T07:53:33.050Z,3.45
2022-08-29T07:58:36.243Z,3.45
2022-08-29T08:03:38.771Z,4.43
2022-08-29T08:08:41.751Z,3.53
2022-08-29T08:13:44.857Z,3.90
2022-08-29T08:18:47.829Z,4.25
2022-08-29T08:23:50.259Z,3.53
2022-08-29T08:28:53.514Z,3.65
2022-08-29T08:33:57.989Z,3.22
2022-08-29T08:39:00.653Z,3.28
2022-08-29T08:44:15.520Z,3.30
2022-08-29T08:49:32.526Z,3.97
2022-08-29T08:54:57.683Z,3.78
2022-08-29T09:00:00.535Z,3.50
2022-08-29T09:05:30.217Z,3.63
2022-08-29T09:11:03.257Z,3.60
2022-08-29T09:16:14.901Z,3.72
2022-08-29T09:21:40.201Z,2.90
2022-08-29T09:26:44.573Z,3.58
2022-08-29T09:32:05.849Z,2.80
2022-08-29T09:37:26.199Z,3.03
2022-08-29T09:42:35.840Z,3.33
2022-08-29T09:47:38.421Z,3.03
2022-08-29T09:52:55.552Z,3.75
2022-08-29T09:58:04.261Z,3.28
2022-08-29T10:03:10.221Z,3.28
2022-08-29T10:08:35.391Z,3.40
2022-08-29T10:13:44.010Z,3.08
2022-08-29T10:18:55.159Z,3.00
2022-08-29T10:24:28.685Z,3.10
2022-08-29T10:29:50.697Z,3.15
2022-08-29T10:35:14.748Z,2.00
2022-08-29T10:40:23.036Z,2.30
2022-08-29T10:45:56.649Z,2.90
2022-08-29T10:51:17.360Z,2.63
2022-08-29T10:56:33.212Z,2.55
2022-08-29T11:02:03.803Z,3.47
2022-08-29T11:07:24.667Z,3.17
2022-08-29T11:12:45.332Z,3.15
2022-08-29T11:18:12.653Z,3.08
2022-08-29T11:23:38.768Z,2.58
2022-08-29T11:29:22.387Z,3.13
2022-08-29T11:34:58.091Z,3.60
2022-08-29T11:46:00.193Z,3.17
2022-08-29T11:51:36.549Z,2.83
2022-08-29T11:56:39.001Z,2.90
2022-08-29T12:01:41.449Z,2.90
2022-08-29T12:07:00.040Z,2.60
2022-08-29T12:12:12.965Z,2.75
2022-08-29T12:17:31.864Z,2.80
2022-08-29T12:22:49.883Z,2.40
2022-08-29T12:28:23.941Z,2.85
2022-08-29T12:33:49.152Z,2.80
2022-08-29T12:39:19.561Z,2.05
2022-08-29T12:44:40.116Z,2.70
2022-08-29T12:49:55.932Z,2.72
2022-08-29T12:55:00.556Z,2.40
2022-08-29T13:00:11.182Z,2.78
2022-08-29T13:05:26.839Z,2.85
2022-08-29T13:10:31.375Z,2.72
2022-08-29T13:15:34.277Z,2.25
2022-08-29T13:20:48.776Z,2.55
2022-08-29T13:26:05.804Z,2.47
2022-08-29T13:31:26.216Z,2.15
2022-08-29T13:36:58.946Z,3.10
2022-08-29T13:42:01.310Z,2.90
2022-08-29T13:47:16.790Z,2.65
2022-08-29T13:52:19.475Z,2.80
2022-08-29T13:57:25.114Z,2.42
2022-08-29T14:02:33.411Z,3.28
2022-08-29T14:07:38.280Z,2.95
2022-08-29T14:12:40.984Z,2.40
2022-08-29T14:17:45.466Z,2.47
2022-08-29T14:22:48.161Z,3.50
2022-08-29T14:27:50.831Z,2.65
2022-08-29T14:32:53.361Z,2.92
2022-08-29T14:37:56.851Z,2.75
2022-08-29T14:43:01.259Z,2.30
2022-08-29T14:48:05.843Z,1.88
2022-08-29T14:53:08.494Z,2.28
2022-08-29T14:58:12.214Z,2.60
2022-08-29T15:03:14.934Z,2.33
2022-08-29T15:08:17.667Z,2.28
2022-08-29T15:13:21.266Z,2.50
2022-08-29T15:19:07.214Z,2.50
2022-08-29T15:23:48.995Z,2.30
2022-08-29T15:28:54.765Z,2.53
2022-08-29T15:33:58.119Z,2.20
2022-08-29T15:39:05.521Z,3.90
2022-08-29T15:44:08.216Z,2.53
2022-08-29T15:49:12.851Z,2.55
2022-08-29T15:54:15.691Z,2.38
2022-08-29T15:59:31.009Z,2.75
2022-08-29T16:04:42.972Z,2.78
2022-08-29T16:09:45.577Z,2.47
2022-08-29T16:15:06.617Z,3.35
2022-08-29T16:20:11.625Z,3.28
2022-08-29T16:25:15.076Z,2.75
2022-08-29T16:30:19.206Z,3.03
2022-08-29T16:35:22.115Z,3.30
2022-08-29T16:40:25.193Z,6.30
2022-08-29T16:45:27.585Z,4.05
2022-08-29T16:50:30.095Z,4.05
2022-08-29T16:55:32.823Z,3.03
2022-08-29T17:00:35.332Z,3.25
2022-08-29T17:05:37.937Z,3.38
2022-08-29T17:10:40.372Z,3.70
2022-08-29T17:15:42.773Z,3.90
2022-08-29T17:20:48.922Z,3.00
2022-08-29T17:25:51.450Z,3.22
2022-08-29T17:30:55.407Z,2.63
2022-08-29T17:35:58.317Z,2.65
2022-08-29T17:41:04.381Z,2.58
2022-08-29T17:46:19.656Z,2.53
2022-08-29T17:51:22.931Z,2.53
2022-08-29T17:56:44.347Z,2.37
2022-08-29T18:01:47.542Z,2.53
2022-08-29T18:06:51.994Z,2.83
2022-08-29T18:11:58.274Z,2.25
2022-08-29T18:17:00.776Z,2.17
2022-08-29T18:22:03.198Z,2.47
2022-08-29T18:27:06.181Z,2.20
2022-08-29T18:32:08.914Z,3.03
2022-08-29T18:37:12.619Z,2.83
2022-08-29T18:42:30.798Z,2.25
2022-08-29T18:47:37.968Z,2.40
2022-08-29T18:52:40.375Z,2.63
2022-08-29T18:57:44.325Z,2.80
2022-08-29T19:02:47.232Z,2.80
2022-08-29T19:07:49.993Z,2.95
2022-08-29T19:12:53.783Z,2.65
2022-08-29T19:17:56.810Z,2.38
2022-08-29T19:22:59.529Z,2.88
2022-08-29T19:28:02.647Z,2.58
2022-08-29T19:33:09.323Z,2.67
2022-08-29T19:38:13.024Z,3.13
2022-08-29T19:43:16.003Z,2.65
2022-08-29T19:48:20.673Z,2.55
2022-08-29T19:53:26.420Z,2.30
2022-08-29T19:58:31.556Z,2.70
2022-08-29T20:03:37.629Z,2.35
2022-08-29T20:08:42.870Z,2.95
2022-08-29T20:13:50.504Z,2.40
2022-08-29T20:18:54.051Z,2.50
2022-08-29T20:23:58.463Z,2.60
2022-08-29T20:29:02.889Z,2.67
2022-08-29T20:34:05.970Z,2.95
2022-08-29T20:39:10.844Z,2.00
2022-08-29T20:44:18.336Z,2.78
2022-08-29T20:49:23.820Z,2.72
2022-08-29T20:54:26.317Z,3.00
2022-08-29T20:59:32.652Z,2.78
2022-08-29T21:04:56.245Z,2.30
2022-08-29T21:09:58.773Z,3.13
2022-08-29T21:15:04.698Z,2.80
2022-08-29T21:20:07.809Z,3.05
2022-08-29T21:25:10.810Z,2.42
2022-08-29T21:30:13.899Z,2.78
2022-08-29T21:35:17.098Z,2.60
2022-08-29T21:40:25.985Z,2.58
2022-08-29T21:45:29.609Z,2.90
2022-08-29T21:50:32.033Z,2.42
2022-08-29T21:55:34.415Z,3.03
2022-08-29T22:00:40.878Z,2.88
2022-08-29T22:05:44.152Z,2.88
2022-08-29T22:10:48.237Z,2.75
2022-08-29T22:16:09.202Z,2.50
2022-08-29T22:21:15.301Z,3.05
2022-08-29T22:26:18.146Z,2.47
2022-08-29T22:31:21.113Z,3.33
2022-08-29T22:36:24.744Z,2.58
2022-08-29T22:41:27.249Z,2.40
2022-08-29T22:46:29.876Z,3.13
2022-08-29T22:51:32.413Z,2.45
2022-08-29T22:56:37.483Z,3.30
2022-08-29T23:01:43.541Z,2.78
2022-08-29T23:06:46.152Z,2.60
2022-08-29T23:11:50.327Z,2.70
2022-08-29T23:16:52.777Z,2.72
2022-08-29T23:21:55.400Z,2.55
2022-08-29T23:26:59.668Z,2.75
2022-08-29T23:32:03.297Z,2.25
2022-08-29T23:37:06.187Z,2.85
2022-08-29T23:42:08.705Z,3.13
2022-08-29T23:47:11.154Z,2.65
2022-08-29T23:52:13.797Z,2.83
2022-08-29T23:57:16.436Z,3.20
